createdAt,value
2018-12-31T00:00:26.245Z,2.60
2018-12-31T00:02:53.029Z,2.60
2018-12-31T00:05:19.845Z,2.60
2018-12-31T00:07:46.624Z,2.50
2018-12-31T00:10:13.440Z,2.60
2018-12-31T00:12:40.220Z,2.50
2018-12-31T00:15:07.093Z,2.60
2018-12-31T00:17:33.873Z,2.60
2018-12-31T00:20:00.659Z,2.60
2018-12-31T00:22:27.477Z,2.60
2018-12-31T00:24:54.262Z,2.60
2018-12-31T00:27:21.077Z,2.60
2018-12-31T00:29:47.898Z,2.60
2018-12-31T00:32:14.676Z,2.60
2018-12-31T00:34:41.498Z,2.60
2018-12-31T00:37:08.313Z,2.60
2018-12-31T00:39:35.135Z,2.60
2018-12-31T00:42:01.960Z,2.60
2018-12-31T00:44:28.750Z,2.60
2018-12-31T00:46:55.581Z,2.60
2018-12-31T00:49:22.365Z,2.60
2018-12-31T00:51:49.182Z,2.60
2018-12-31T00:54:15.998Z,2.60
2018-12-31T00:56:42.786Z,2.60
2018-12-31T00:59:09.642Z,2.60
2018-12-31T01:01:36.505Z,2.60
2018-12-31T01:04:03.321Z,2.60
2018-12-31T01:06:30.108Z,2.60
2018-12-31T01:08:56.928Z,2.60
2018-12-31T01:11:23.715Z,2.50
2018-12-31T01:13:50.529Z,2.50
2018-12-31T01:16:17.309Z,2.50
2018-12-31T01:18:44.126Z,2.60
2018-12-31T01:21:10.915Z,2.50
2018-12-31T01:23:37.751Z,2.50
2018-12-31T01:26:04.528Z,2.50
2018-12-31T01:28:31.345Z,2.50
2018-12-31T01:30:58.173Z,2.50
2018-12-31T01:33:24.955Z,2.50
2018-12-31T01:35:51.785Z,2.60
2018-12-31T01:38:18.569Z,2.60
2018-12-31T01:40:45.350Z,2.50
2018-12-31T01:43:12.569Z,2.50
2018-12-31T01:45:39.393Z,2.60
2018-12-31T01:48:06.171Z,2.50
2018-12-31T01:50:32.988Z,2.60
2018-12-31T01:52:59.773Z,2.60
2018-12-31T01:55:28.491Z,2.50
2018-12-31T01:57:55.278Z,2.60
2018-12-31T02:00:22.128Z,2.60
2018-12-31T02:02:48.913Z,2.60
2018-12-31T02:05:15.738Z,2.50
2018-12-31T02:07:42.522Z,2.50
2018-12-31T02:10:10.245Z,2.60
2018-12-31T02:12:37.021Z,2.60
2018-12-31T02:15:05.045Z,2.50
2018-12-31T02:17:31.824Z,2.50
2018-12-31T02:20:00.121Z,2.50
2018-12-31T02:22:26.925Z,2.50
2018-12-31T02:24:53.741Z,2.50
2018-12-31T02:27:20.520Z,2.50
2018-12-31T02:29:47.340Z,2.50
2018-12-31T02:32:14.504Z,2.50
2018-12-31T02:34:41.350Z,2.50
2018-12-31T02:37:08.162Z,2.50
2018-12-31T02:39:34.943Z,2.60
2018-12-31T02:42:01.760Z,2.50
2018-12-31T02:44:28.546Z,2.50
2018-12-31T02:46:55.365Z,2.50
2018-12-31T02:49:22.193Z,2.60
2018-12-31T02:51:48.976Z,2.60
2018-12-31T02:54:15.796Z,2.60
2018-12-31T02:56:42.576Z,2.60
2018-12-31T02:59:09.486Z,2.60
2018-12-31T03:01:36.320Z,2.60
2018-12-31T03:04:03.103Z,2.60
2018-12-31T03:06:29.917Z,2.60
2018-12-31T03:08:56.692Z,2.60
2018-12-31T03:11:23.515Z,2.60
2018-12-31T03:13:50.299Z,2.60
2018-12-31T03:16:17.113Z,2.60
2018-12-31T03:18:43.933Z,2.70
2018-12-31T03:21:10.711Z,2.60
2018-12-31T03:23:37.532Z,2.60
2018-12-31T03:26:04.316Z,2.60
2018-12-31T03:28:31.138Z,2.60
2018-12-31T03:30:57.972Z,2.60
2018-12-31T03:33:24.738Z,2.60
2018-12-31T03:35:51.565Z,2.60
2018-12-31T03:38:18.350Z,2.60
2018-12-31T03:40:45.165Z,2.60
2018-12-31T03:43:11.939Z,2.60
2018-12-31T03:45:38.763Z,2.60
2018-12-31T03:48:05.573Z,2.60
2018-12-31T03:50:32.358Z,2.60
2018-12-31T03:52:59.185Z,2.60
2018-12-31T03:55:25.965Z,2.60
2018-12-31T03:57:52.801Z,2.60
2018-12-31T04:00:19.560Z,2.60
2018-12-31T04:02:47.034Z,2.60
2018-12-31T04:05:13.903Z,2.60
2018-12-31T04:07:40.710Z,2.60
2018-12-31T04:10:07.489Z,2.50
2018-12-31T04:12:34.309Z,2.50
2018-12-31T04:15:01.084Z,2.50
2018-12-31T04:17:27.896Z,2.50
2018-12-31T04:19:54.681Z,2.50
2018-12-31T04:22:21.493Z,2.50
2018-12-31T04:24:48.313Z,2.50
2018-12-31T04:27:15.093Z,2.50
2018-12-31T04:29:41.913Z,2.50
2018-12-31T04:32:08.734Z,2.50
2018-12-31T04:34:35.525Z,2.50
2018-12-31T04:37:02.312Z,2.50
2018-12-31T04:39:29.329Z,2.50
2018-12-31T04:41:56.114Z,2.50
2018-12-31T04:44:22.937Z,2.50
2018-12-31T04:46:49.722Z,2.50
2018-12-31T04:49:16.540Z,2.40
2018-12-31T04:51:43.322Z,2.50
2018-12-31T04:54:10.140Z,2.50
2018-12-31T04:56:36.921Z,2.50
2018-12-31T04:59:03.740Z,2.50
2018-12-31T05:01:30.550Z,2.50
2018-12-31T05:03:57.374Z,2.50
2018-12-31T05:06:24.190Z,2.50
2018-12-31T05:08:50.975Z,2.50
2018-12-31T05:11:17.798Z,2.50
2018-12-31T05:13:44.577Z,2.50
2018-12-31T05:16:11.392Z,2.50
2018-12-31T05:18:38.173Z,2.50
2018-12-31T05:21:04.980Z,2.50
2018-12-31T05:23:31.801Z,2.50
2018-12-31T05:25:58.581Z,2.60
2018-12-31T05:28:25.405Z,2.50
2018-12-31T05:30:52.189Z,2.60
2018-12-31T05:33:19.008Z,2.60
2018-12-31T05:35:45.793Z,2.60
2018-12-31T05:38:12.615Z,2.50
2018-12-31T05:40:39.398Z,2.50
2018-12-31T05:43:06.173Z,2.50
2018-12-31T05:45:32.989Z,2.50
2018-12-31T05:47:59.810Z,2.50
2018-12-31T05:50:26.600Z,2.50
2018-12-31T05:52:53.413Z,2.50
2018-12-31T05:55:20.207Z,2.50
2018-12-31T05:57:47.030Z,2.50
2018-12-31T06:00:13.809Z,2.50
2018-12-31T06:02:40.628Z,2.50
2018-12-31T06:05:07.457Z,2.50
2018-12-31T06:07:34.268Z,2.50
2018-12-31T06:10:01.060Z,2.50
2018-12-31T06:12:28.476Z,2.50
2018-12-31T06:14:55.268Z,2.50
2018-12-31T06:17:22.087Z,2.50
2018-12-31T06:19:48.868Z,2.50
2018-12-31T06:22:15.697Z,2.50
2018-12-31T06:24:42.586Z,2.50
2018-12-31T06:27:09.412Z,2.50
2018-12-31T06:29:36.228Z,2.50
2018-12-31T06:32:03.008Z,2.50
2018-12-31T06:34:29.834Z,2.50
2018-12-31T06:36:56.621Z,2.50
2018-12-31T06:39:23.447Z,2.50
2018-12-31T06:41:50.221Z,2.50
2018-12-31T06:44:17.041Z,2.50
2018-12-31T06:46:43.825Z,2.50
2018-12-31T06:49:10.644Z,2.50
2018-12-31T06:51:37.424Z,2.50
2018-12-31T06:54:04.291Z,2.50
2018-12-31T06:56:31.070Z,2.50
2018-12-31T06:58:57.949Z,2.50
2018-12-31T07:01:24.771Z,2.50
2018-12-31T07:03:51.662Z,2.50
2018-12-31T07:06:18.441Z,2.50
2018-12-31T07:08:45.261Z,2.50
2018-12-31T07:11:12.040Z,2.60
2018-12-31T07:13:38.877Z,2.60
2018-12-31T07:16:05.665Z,2.60
2018-12-31T07:18:32.481Z,2.50
2018-12-31T07:20:59.266Z,2.50
2018-12-31T07:23:26.081Z,2.60
2018-12-31T07:25:52.869Z,2.60
2018-12-31T07:28:19.688Z,2.60
2018-12-31T07:30:46.468Z,2.60
2018-12-31T07:33:13.290Z,2.60
2018-12-31T07:35:40.074Z,2.60
2018-12-31T07:38:06.896Z,2.60
2018-12-31T07:40:33.679Z,2.60
2018-12-31T07:43:00.496Z,2.50
2018-12-31T07:45:27.322Z,2.50
2018-12-31T07:47:54.201Z,2.50
2018-12-31T07:50:21.022Z,2.50
2018-12-31T07:52:47.802Z,2.50
2018-12-31T07:55:14.623Z,2.50
2018-12-31T07:57:42.213Z,2.50
2018-12-31T08:00:09.036Z,2.50
2018-12-31T08:02:35.816Z,2.50
2018-12-31T08:05:03.173Z,2.50
2018-12-31T08:07:29.962Z,2.50
2018-12-31T08:09:56.792Z,2.50
2018-12-31T08:12:23.579Z,2.50
2018-12-31T08:14:50.398Z,2.50
2018-12-31T08:17:17.211Z,2.50
2018-12-31T08:19:43.969Z,2.40
2018-12-31T08:22:10.798Z,2.50
2018-12-31T08:24:37.577Z,2.50
2018-12-31T08:27:04.401Z,2.50
2018-12-31T08:29:31.228Z,2.40
2018-12-31T08:31:58.009Z,2.40
2018-12-31T08:34:24.845Z,2.40
2018-12-31T08:36:51.749Z,2.40
2018-12-31T08:39:18.604Z,2.40
2018-12-31T08:41:45.442Z,2.40
2018-12-31T08:44:12.243Z,2.50
2018-12-31T08:46:39.066Z,2.50
2018-12-31T08:49:05.852Z,2.50
2018-12-31T08:51:32.693Z,2.50
2018-12-31T08:53:59.543Z,2.50
2018-12-31T08:56:26.397Z,2.50
2018-12-31T08:58:53.246Z,2.40
2018-12-31T09:01:20.093Z,2.40
2018-12-31T09:03:46.892Z,2.40
2018-12-31T09:06:13.761Z,2.40
2018-12-31T09:08:40.563Z,2.40
2018-12-31T09:11:07.493Z,2.40
2018-12-31T09:13:34.286Z,2.40
2018-12-31T09:16:01.122Z,2.40
2018-12-31T09:18:27.934Z,2.40
2018-12-31T09:20:54.792Z,2.30
2018-12-31T09:23:21.561Z,2.30
2018-12-31T09:25:48.398Z,2.30
2018-12-31T09:28:15.209Z,2.30
2018-12-31T09:30:42.038Z,2.40
2018-12-31T09:33:08.835Z,2.40
2018-12-31T09:35:35.668Z,2.40
2018-12-31T09:38:02.474Z,2.40
2018-12-31T09:40:29.275Z,2.40
2018-12-31T09:42:56.120Z,2.40
2018-12-31T09:45:22.946Z,2.40
2018-12-31T09:47:49.757Z,2.40
2018-12-31T09:50:16.588Z,2.40
2018-12-31T09:52:43.375Z,2.40
2018-12-31T09:55:10.226Z,2.50
2018-12-31T09:57:37.018Z,2.50
2018-12-31T10:00:05.263Z,2.40
2018-12-31T10:02:32.058Z,2.50
2018-12-31T10:04:58.891Z,2.50
2018-12-31T10:07:25.723Z,2.50
2018-12-31T10:09:52.560Z,2.50
2018-12-31T10:12:19.403Z,2.50
2018-12-31T10:14:46.210Z,2.50
2018-12-31T10:17:13.041Z,2.50
2018-12-31T10:19:39.838Z,2.50
2018-12-31T10:22:06.868Z,2.50
2018-12-31T10:24:33.660Z,2.50
2018-12-31T10:27:00.493Z,2.60
2018-12-31T10:29:27.336Z,2.60
2018-12-31T10:31:54.154Z,2.60
2018-12-31T10:34:20.999Z,2.60
2018-12-31T10:36:47.841Z,2.60
2018-12-31T10:39:14.642Z,2.60
2018-12-31T10:41:41.494Z,2.60
2018-12-31T10:44:08.354Z,2.60
2018-12-31T10:46:35.162Z,2.60
2018-12-31T10:49:01.995Z,2.60
2018-12-31T10:51:28.825Z,2.70
2018-12-31T10:53:55.625Z,2.70
2018-12-31T10:56:22.465Z,2.60
2018-12-31T10:58:49.305Z,2.70
2018-12-31T11:01:16.108Z,2.60
2018-12-31T11:03:42.970Z,2.60
2018-12-31T11:06:09.801Z,2.60
2018-12-31T11:08:36.662Z,2.60
2018-12-31T11:11:03.606Z,2.70
2018-12-31T11:13:30.473Z,2.60
2018-12-31T11:15:57.266Z,2.60
2018-12-31T11:18:24.101Z,2.60
2018-12-31T11:20:50.934Z,2.70
2018-12-31T11:23:17.735Z,2.70
2018-12-31T11:25:45.503Z,2.70
2018-12-31T11:28:12.329Z,2.70
2018-12-31T11:30:39.119Z,2.70
2018-12-31T11:33:05.953Z,2.70
2018-12-31T11:35:32.759Z,2.70
2018-12-31T11:37:59.589Z,2.70
2018-12-31T11:40:26.405Z,2.70
2018-12-31T11:42:53.238Z,2.70
2018-12-31T11:45:20.024Z,2.80
2018-12-31T11:47:46.865Z,2.80
2018-12-31T11:50:13.664Z,2.80
2018-12-31T11:52:40.502Z,2.90
2018-12-31T11:55:07.309Z,2.90
2018-12-31T11:57:34.142Z,2.90
2018-12-31T12:00:00.945Z,2.90
2018-12-31T12:02:27.830Z,2.90
2018-12-31T12:04:54.684Z,2.90
2018-12-31T12:07:21.542Z,3.00
2018-12-31T12:09:48.375Z,3.00
2018-12-31T12:12:15.166Z,3.00
2018-12-31T12:14:42.003Z,3.10
2018-12-31T12:17:09.011Z,3.10
2018-12-31T12:19:36.351Z,3.10
2018-12-31T12:22:03.178Z,3.20
2018-12-31T12:24:30.028Z,3.20
2018-12-31T12:26:56.885Z,3.20
2018-12-31T12:29:23.704Z,3.20
2018-12-31T12:31:50.528Z,3.30
2018-12-31T12:34:17.362Z,3.30
2018-12-31T12:36:44.167Z,3.30
2018-12-31T12:39:11.006Z,3.30
2018-12-31T12:41:38.093Z,3.30
2018-12-31T12:44:04.918Z,3.30
2018-12-31T12:46:31.776Z,3.30
2018-12-31T12:48:58.649Z,3.30
2018-12-31T12:51:25.450Z,3.30
2018-12-31T12:53:52.285Z,3.30
2018-12-31T12:56:19.391Z,3.30
2018-12-31T12:58:46.231Z,3.30
2018-12-31T13:01:13.022Z,3.40
2018-12-31T13:03:39.869Z,3.40
2018-12-31T13:06:06.731Z,3.40
2018-12-31T13:08:33.556Z,3.50
2018-12-31T13:11:00.657Z,3.50
2018-12-31T13:13:27.507Z,3.50
2018-12-31T13:15:54.296Z,3.50
2018-12-31T13:18:21.151Z,3.50
2018-12-31T13:20:47.960Z,3.60
2018-12-31T13:23:14.806Z,3.60
2018-12-31T13:25:41.869Z,3.70
2018-12-31T13:28:08.725Z,3.70
2018-12-31T13:30:35.930Z,3.70
2018-12-31T13:33:02.813Z,3.70
2018-12-31T13:35:29.591Z,3.70
2018-12-31T13:37:56.377Z,3.70
2018-12-31T13:40:23.242Z,3.70
2018-12-31T13:42:50.060Z,3.70
2018-12-31T13:45:16.888Z,3.70
2018-12-31T13:47:43.677Z,3.70
2018-12-31T13:50:10.510Z,3.70
2018-12-31T13:52:37.304Z,3.70
2018-12-31T13:55:04.545Z,3.70
2018-12-31T13:57:31.326Z,3.70
2018-12-31T13:59:58.214Z,3.80
2018-12-31T14:02:25.005Z,3.80
2018-12-31T14:04:51.850Z,3.70
2018-12-31T14:07:18.682Z,3.80
2018-12-31T14:09:45.521Z,3.80
2018-12-31T14:12:12.330Z,3.80
2018-12-31T14:14:39.280Z,3.80
2018-12-31T14:17:06.182Z,3.80
2018-12-31T14:19:33.013Z,3.80
2018-12-31T14:22:00.231Z,3.80
2018-12-31T14:24:27.064Z,3.80
2018-12-31T14:27:00.477Z,3.80
2018-12-31T14:29:22.874Z,3.80
2018-12-31T14:31:49.715Z,3.80
2018-12-31T14:34:36.244Z,3.80
2018-12-31T14:37:03.069Z,3.80
2018-12-31T14:39:29.862Z,3.80
2018-12-31T14:41:56.685Z,3.80
2018-12-31T14:44:23.465Z,3.80
2018-12-31T14:46:50.689Z,3.80
2018-12-31T14:49:17.521Z,3.90
2018-12-31T14:51:44.308Z,3.80
2018-12-31T14:54:11.138Z,3.90
2018-12-31T14:56:38.153Z,3.80
2018-12-31T14:59:04.960Z,3.80
2018-12-31T15:01:32.082Z,3.80
2018-12-31T15:03:58.903Z,3.80
2018-12-31T15:06:25.771Z,3.80
2018-12-31T15:08:52.584Z,3.90
2018-12-31T15:11:19.420Z,3.90
2018-12-31T15:13:46.210Z,3.90
2018-12-31T15:16:13.156Z,3.90
2018-12-31T15:18:39.961Z,3.80
2018-12-31T15:21:06.738Z,3.80
2018-12-31T15:23:33.553Z,3.80
2018-12-31T15:26:00.377Z,3.90
2018-12-31T15:28:27.190Z,3.90
2018-12-31T15:30:54.285Z,3.90
2018-12-31T15:33:21.093Z,3.90
2018-12-31T15:35:47.899Z,3.90
2018-12-31T15:38:14.685Z,3.90
2018-12-31T15:40:41.505Z,3.90
2018-12-31T15:43:08.292Z,3.90
2018-12-31T15:45:35.419Z,3.90
2018-12-31T15:48:02.196Z,3.90
2018-12-31T15:50:29.018Z,3.80
2018-12-31T15:52:55.800Z,3.80
2018-12-31T15:55:23.117Z,3.80
2018-12-31T15:57:49.942Z,3.90
2018-12-31T16:00:17.012Z,3.80
2018-12-31T16:02:43.837Z,3.90
2018-12-31T16:05:10.626Z,3.90
2018-12-31T16:07:45.378Z,3.90
2018-12-31T16:10:06.281Z,4.00
2018-12-31T16:12:33.144Z,4.00
2018-12-31T16:15:00.621Z,4.00
2018-12-31T16:17:27.466Z,4.00
2018-12-31T16:19:54.237Z,4.00
2018-12-31T16:22:21.059Z,4.00
2018-12-31T16:24:47.882Z,4.00
2018-12-31T16:27:14.666Z,4.00
2018-12-31T16:29:41.793Z,4.00
2018-12-31T16:32:08.621Z,4.00
2018-12-31T16:34:35.468Z,4.00
2018-12-31T16:37:02.322Z,4.00
2018-12-31T16:39:29.304Z,4.00
2018-12-31T16:41:56.122Z,4.00
2018-12-31T16:44:23.180Z,4.00
2018-12-31T16:46:50.053Z,4.00
2018-12-31T16:49:16.877Z,4.00
2018-12-31T16:51:43.656Z,4.10
2018-12-31T16:54:10.472Z,4.10
2018-12-31T16:56:37.263Z,4.10
2018-12-31T16:59:04.403Z,4.10
2018-12-31T17:01:31.262Z,4.10
2018-12-31T17:03:58.082Z,4.10
2018-12-31T17:06:24.864Z,4.10
2018-12-31T17:08:51.691Z,4.10
2018-12-31T17:11:18.474Z,4.10
2018-12-31T17:13:45.549Z,4.00
2018-12-31T17:16:12.349Z,4.10
2018-12-31T17:18:39.160Z,4.10
2018-12-31T17:21:05.945Z,4.10
2018-12-31T17:23:32.766Z,4.10
2018-12-31T17:25:59.545Z,4.10
2018-12-31T17:28:26.853Z,4.10
2018-12-31T17:30:53.661Z,4.10
2018-12-31T17:33:20.481Z,4.10
2018-12-31T17:35:47.301Z,4.10
2018-12-31T17:38:14.173Z,4.10
2018-12-31T17:40:41.253Z,4.10
2018-12-31T17:43:08.381Z,4.10
2018-12-31T17:45:35.169Z,4.10
2018-12-31T17:48:01.960Z,4.10
2018-12-31T17:50:28.781Z,4.10
2018-12-31T17:52:55.569Z,4.10
2018-12-31T17:55:22.391Z,4.20
2018-12-31T17:57:49.185Z,4.20
2018-12-31T18:00:16.005Z,4.20
2018-12-31T18:02:42.785Z,4.20
2018-12-31T18:05:09.601Z,4.20
2018-12-31T18:07:36.389Z,4.20
2018-12-31T18:10:04.813Z,4.20
2018-12-31T18:12:31.597Z,4.20
2018-12-31T18:14:58.452Z,4.20
2018-12-31T18:17:25.273Z,4.20
2018-12-31T18:19:52.061Z,4.20
2018-12-31T18:22:18.878Z,4.20
2018-12-31T18:24:45.679Z,4.30
2018-12-31T18:27:12.796Z,4.30
2018-12-31T18:29:39.581Z,4.30
2018-12-31T18:32:06.406Z,4.30
2018-12-31T18:34:33.184Z,4.30
2018-12-31T18:37:00.011Z,4.30
2018-12-31T18:39:26.793Z,4.30
2018-12-31T18:41:53.609Z,4.30
2018-12-31T18:44:20.393Z,4.30
2018-12-31T18:46:47.217Z,4.30
2018-12-31T18:49:13.995Z,4.30
2018-12-31T18:51:40.813Z,4.40
2018-12-31T18:54:07.600Z,4.40
2018-12-31T18:56:34.422Z,4.40
2018-12-31T18:59:01.245Z,4.40
2018-12-31T19:01:28.642Z,4.40
2018-12-31T19:03:55.465Z,4.40
2018-12-31T19:06:22.258Z,4.40
2018-12-31T19:08:49.037Z,4.40
2018-12-31T19:11:15.865Z,4.40
2018-12-31T19:13:42.763Z,4.30
2018-12-31T19:16:09.548Z,4.40
2018-12-31T19:18:36.365Z,4.40
2018-12-31T19:21:03.149Z,4.40
2018-12-31T19:23:29.968Z,4.30
2018-12-31T19:25:56.752Z,4.30
2018-12-31T19:28:23.787Z,4.30
2018-12-31T19:30:50.569Z,4.30
2018-12-31T19:33:17.397Z,4.40
2018-12-31T19:35:44.180Z,4.40
2018-12-31T19:38:11.010Z,4.50
2018-12-31T19:40:37.784Z,4.40
2018-12-31T19:43:04.906Z,4.40
2018-12-31T19:45:31.695Z,4.40
2018-12-31T19:47:58.524Z,4.40
2018-12-31T19:50:25.304Z,4.40
2018-12-31T19:52:52.120Z,4.40
2018-12-31T19:55:18.945Z,4.40
2018-12-31T19:57:46.038Z,4.40
2018-12-31T20:00:12.895Z,4.50
2018-12-31T20:02:39.650Z,4.40
2018-12-31T20:05:06.674Z,4.40
2018-12-31T20:07:33.453Z,4.50
2018-12-31T20:10:00.280Z,4.50
2018-12-31T20:12:27.360Z,4.40
2018-12-31T20:14:54.222Z,4.40
2018-12-31T20:17:21.030Z,4.40
2018-12-31T20:19:47.853Z,4.40
2018-12-31T20:22:14.659Z,4.40
2018-12-31T20:24:41.484Z,4.40
2018-12-31T20:27:08.265Z,4.40
2018-12-31T20:29:35.048Z,4.40
2018-12-31T20:32:01.881Z,4.30
2018-12-31T20:34:28.665Z,4.30
2018-12-31T20:36:55.494Z,4.30
2018-12-31T20:39:22.280Z,4.30
2018-12-31T20:41:49.106Z,4.30
2018-12-31T20:44:15.930Z,4.30
2018-12-31T20:46:42.761Z,4.30
2018-12-31T20:49:09.590Z,4.30
2018-12-31T20:51:36.378Z,4.30
2018-12-31T20:54:03.213Z,4.30
2018-12-31T20:56:30.001Z,4.30
2018-12-31T20:58:56.825Z,4.20
2018-12-31T21:01:24.022Z,4.20
2018-12-31T21:03:50.940Z,4.20
2018-12-31T21:06:17.772Z,4.20
2018-12-31T21:08:44.578Z,4.20
2018-12-31T21:11:11.426Z,4.20
2018-12-31T21:13:38.209Z,4.20
2018-12-31T21:16:05.582Z,4.20
2018-12-31T21:18:32.449Z,4.20
2018-12-31T21:20:59.298Z,4.20
2018-12-31T21:23:26.060Z,4.20
2018-12-31T21:25:52.888Z,4.20
2018-12-31T21:28:19.682Z,4.10
2018-12-31T21:30:46.506Z,4.20
2018-12-31T21:33:14.826Z,4.20
2018-12-31T21:35:41.625Z,4.20
2018-12-31T21:38:08.448Z,4.20
2018-12-31T21:40:35.273Z,4.20
2018-12-31T21:43:02.069Z,4.20
2018-12-31T21:45:28.906Z,4.20
2018-12-31T21:47:55.954Z,4.20
2018-12-31T21:50:22.749Z,4.20
2018-12-31T21:52:49.590Z,4.10
2018-12-31T21:55:16.428Z,4.10
2018-12-31T21:57:43.234Z,4.10
2018-12-31T22:00:10.057Z,4.10
2018-12-31T22:02:37.149Z,4.10
2018-12-31T22:05:04.297Z,4.10
2018-12-31T22:07:31.090Z,4.10
2018-12-31T22:09:57.921Z,4.10
2018-12-31T22:12:24.707Z,4.10
2018-12-31T22:14:51.525Z,4.10
2018-12-31T22:17:18.494Z,4.10
2018-12-31T22:19:45.289Z,4.10
2018-12-31T22:22:12.112Z,4.10
2018-12-31T22:24:38.905Z,4.10
2018-12-31T22:27:05.735Z,4.10
2018-12-31T22:29:32.559Z,4.10
2018-12-31T22:31:59.365Z,4.00
2018-12-31T22:34:26.154Z,4.00
2018-12-31T22:36:52.973Z,4.00
2018-12-31T22:39:19.769Z,4.00
2018-12-31T22:41:46.617Z,4.00
2018-12-31T22:44:13.401Z,4.00
2018-12-31T22:46:40.237Z,4.00
2018-12-31T22:49:07.065Z,4.00
2018-12-31T22:51:33.881Z,4.00
2018-12-31T22:54:00.708Z,4.00
2018-12-31T22:56:27.514Z,4.00
2018-12-31T22:58:54.336Z,4.00
2018-12-31T23:01:21.122Z,4.00
2018-12-31T23:03:47.929Z,4.00
2018-12-31T23:06:14.781Z,4.00
2018-12-31T23:08:41.621Z,4.00
2018-12-31T23:11:08.401Z,4.00
2018-12-31T23:13:35.250Z,4.00
2018-12-31T23:16:02.040Z,3.90
2018-12-31T23:18:28.899Z,3.90
2018-12-31T23:20:55.691Z,3.90
2018-12-31T23:23:22.534Z,3.90
2018-12-31T23:25:49.405Z,3.90
2018-12-31T23:28:16.249Z,3.90
2018-12-31T23:30:43.041Z,3.80
2018-12-31T23:33:10.181Z,3.90
2018-12-31T23:35:36.969Z,3.80
2018-12-31T23:38:03.814Z,3.80
2018-12-31T23:40:30.617Z,3.90
2018-12-31T23:42:57.456Z,3.90
2018-12-31T23:45:24.281Z,3.90
2018-12-31T23:47:51.373Z,3.80
2018-12-31T23:50:18.193Z,3.80
2018-12-31T23:52:44.977Z,3.80
2018-12-31T23:55:11.801Z,3.80
2018-12-31T23:57:38.601Z,3.80
